Time;durP1;ratioP1;P1;durP2;ratioP2;P2;SDS_P1;SDS_P2;PMS_P1;PMS_P2;Temp;Humidity;BMP_temperature;BMP_pressure;BME280_temperature;BME280_humidity;BME280_pressure;Samples;Min_cycle;Max_cycle;Signal;HPM_P1;HPM_P2
2023/05/15 00:01:46;;;;;;;11.23;10.73;;;14.70;33.10;;;;;;5066898;28;20194;-72
2023/05/15 00:04:12;;;;;;;10.93;10.43;;;14.60;32.40;;;;;;5066358;28;20436;-70
2023/05/15 00:06:37;;;;;;;10.13;9.73;;;14.40;33.90;;;;;;5066884;28;20226;-72
2023/05/15 00:09:03;;;;;;;11.70;11.10;;;14.30;35.00;;;;;;5067470;28;20245;-71
2023/05/15 00:11:29;;;;;;;11.70;11.10;;;14.40;34.10;;;;;;5047364;28;20187;-72
2023/05/15 00:13:54;;;;;;;9.97;9.57;;;14.40;33.70;;;;;;5064638;28;20187;-73
2023/05/15 00:16:20;;;;;;;11.00;10.40;;;14.50;33.50;;;;;;5068146;28;20221;-72
2023/05/15 00:18:46;;;;;;;10.87;10.37;;;14.50;33.20;;;;;;5063793;28;20178;-71
2023/05/15 00:21:11;;;;;;;11.63;11.13;;;14.40;33.40;;;;;;5065016;28;20659;-73
2023/05/15 00:23:37;;;;;;;11.07;10.37;;;14.20;34.40;;;;;;5065089;28;20191;-71
2023/05/15 00:26:02;;;;;;;11.60;11.10;;;14.20;34.40;;;;;;5046900;28;20580;-71
2023/05/15 00:28:28;;;;;;;11.10;10.60;;;14.00;35.00;;;;;;5047971;28;20185;-72
2023/05/15 00:30:53;;;;;;;10.90;10.40;;;14.00;35.10;;;;;;5064389;28;20262;-71
2023/05/15 00:33:19;;;;;;;11.37;10.77;;;14.10;35.10;;;;;;5067093;28;20583;-72
2023/05/15 00:35:45;;;;;;;11.20;10.70;;;14.20;35.00;;;;;;5048756;28;20183;-72
2023/05/15 00:38:10;;;;;;;11.00;10.50;;;14.40;34.30;;;;;;5046544;28;20193;-72
2023/05/15 00:40:37;;;;;;;10.83;10.43;;;14.50;34.00;;;;;;5065042;28;20183;-72
2023/05/15 00:43:03;;;;;;;11.00;10.50;;;14.50;33.50;;;;;;5065181;28;20343;-71
2023/05/15 00:45:29;;;;;;;11.10;10.70;;;14.60;33.40;;;;;;5065568;28;20443;-73
2023/05/15 00:47:57;;;;;;;11.40;10.80;;;14.60;33.10;;;;;;5063821;28;20414;-71
2023/05/15 00:50:23;;;;;;;10.67;10.27;;;14.70;32.80;;;;;;5065421;28;20414;-73
2023/05/15 00:52:49;;;;;;;11.20;10.67;;;14.70;32.40;;;;;;5047118;28;20429;-73
2023/05/15 00:55:15;;;;;;;11.27;10.77;;;14.80;32.70;;;;;;5062502;28;20409;-72
2023/05/15 00:57:42;;;;;;;11.07;10.37;;;14.80;32.50;;;;;;5043697;28;20431;-74
2023/05/15 01:00:09;;;;;;;11.00;10.50;;;14.80;32.40;;;;;;5045291;28;20657;-70
2023/05/15 01:02:35;;;;;;;11.03;10.53;;;14.80;32.50;;;;;;5064175;28;20436;-74
2023/05/15 01:05:02;;;;;;;12.37;11.80;;;14.80;32.40;;;;;;5045971;28;20406;-73
2023/05/15 01:07:32;;;;;;;10.93;10.23;;;14.80;32.60;;;;;;5063063;28;20667;-74
2023/05/15 01:09:58;;;;;;;11.90;11.40;;;14.80;32.70;;;;;;5062825;28;20969;-74
2023/05/15 01:12:25;;;;;;;11.90;11.30;;;14.80;33.50;;;;;;5063189;28;20413;-74
2023/05/15 01:14:51;;;;;;;11.73;11.23;;;14.80;32.50;;;;;;5063940;28;20435;-74
2023/05/15 01:17:17;;;;;;;11.33;10.83;;;14.80;32.80;;;;;;5062684;28;20418;-74
2023/05/15 01:19:44;;;;;;;11.77;11.27;;;14.80;32.60;;;;;;5063973;28;20207;-75
2023/05/15 01:22:42;;;;;;;11.07;10.50;;;14.80;32.40;;;;;;5062812;28;20915;-74
2023/05/15 01:25:29;;;;;;;12.10;11.50;;;14.80;32.10;;;;;;5062899;28;21170;-74
2023/05/15 01:28:01;;;;;;;10.90;10.40;;;14.70;32.20;;;;;;5063060;28;20413;-74
2023/05/15 01:30:32;;;;;;;10.20;9.70;;;14.70;32.40;;;;;;5062173;28;20402;-71
2023/05/15 01:33:10;;;;;;;11.27;10.60;;;14.70;32.60;;;;;;5062587;28;20839;-73
2023/05/15 01:35:51;;;;;;;11.50;10.90;;;14.70;32.60;;;;;;5063548;28;20923;-74
2023/05/15 01:38:35;;;;;;;11.33;10.83;;;14.80;32.70;;;;;;5063066;28;20428;-75
2023/05/15 01:41:22;;;;;;;10.13;9.70;;;14.80;32.40;;;;;;5043704;28;20798;-74
2023/05/15 01:43:54;;;;;;;11.10;10.60;;;14.70;32.00;;;;;;5042924;28;20524;-75
2023/05/15 01:46:22;;;;;;;11.53;11.03;;;14.70;32.40;;;;;;5064063;28;20833;-72
2023/05/15 01:48:49;;;;;;;11.30;10.80;;;14.70;32.40;;;;;;5062048;28;20410;-73
2023/05/15 01:51:16;;;;;;;12.13;11.57;;;14.70;32.00;;;;;;5064972;28;20405;-72
2023/05/15 01:53:42;;;;;;;11.90;11.37;;;14.70;32.00;;;;;;5065779;28;20440;-72
2023/05/15 01:56:11;;;;;;;12.10;11.47;;;14.70;31.80;;;;;;5061949;28;20413;-73
2023/05/15 01:58:38;;;;;;;10.50;10.10;;;14.70;31.80;;;;;;5061992;28;20414;-71
2023/05/15 02:01:05;;;;;;;10.87;10.37;;;14.70;31.60;;;;;;5061599;28;20421;-73
2023/05/15 02:03:33;;;;;;;12.10;11.57;;;14.70;31.90;;;;;;5061545;28;20465;-73
2023/05/15 02:06:00;;;;;;;11.60;11.10;;;14.70;32.40;;;;;;5062318;28;20464;-71
2023/05/15 02:08:27;;;;;;;12.17;11.57;;;14.60;32.70;;;;;;5062079;28;20492;-73
2023/05/15 02:10:55;;;;;;;11.37;10.87;;;14.60;33.10;;;;;;5061928;28;20406;-74
2023/05/15 02:13:22;;;;;;;11.83;11.33;;;14.60;33.30;;;;;;5061575;28;20437;-72
2023/05/15 02:15:47;;;;;;;11.03;10.63;;;14.50;33.40;;;;;;5044795;28;20420;-73
2023/05/15 02:18:13;;;;;;;11.20;10.80;;;14.50;33.50;;;;;;5061881;28;20422;-71
2023/05/15 02:20:38;;;;;;;12.60;12.10;;;14.50;33.70;;;;;;5060660;28;20172;-73
2023/05/15 02:23:04;;;;;;;12.20;11.70;;;14.50;33.60;;;;;;5061096;28;20199;-71
2023/05/15 02:25:57;;;;;;;11.87;11.37;;;14.60;33.60;;;;;;5063070;28;20706;-73
2023/05/15 02:28:53;;;;;;;11.37;10.87;;;14.50;33.70;;;;;;5060746;28;20186;-72
2023/05/15 02:31:29;;;;;;;11.60;11.10;;;14.50;33.70;;;;;;5054125;28;20520;-73
2023/05/15 02:34:11;;;;;;;12.10;11.60;;;14.50;33.90;;;;;;5060009;28;20429;-72
2023/05/15 02:36:40;;;;;;;12.33;11.73;;;14.50;33.80;;;;;;5061035;28;20424;-72
2023/05/15 02:39:06;;;;;;;12.03;11.50;;;14.50;33.90;;;;;;5061520;28;20413;-74
2023/05/15 02:41:34;;;;;;;11.50;11.00;;;14.50;34.00;;;;;;5062901;28;20479;-73
2023/05/15 02:44:01;;;;;;;11.97;11.47;;;14.50;33.90;;;;;;5060677;28;20433;-73
2023/05/15 02:46:27;;;;;;;12.27;11.67;;;14.50;33.80;;;;;;5060180;28;20962;-72
2023/05/15 02:48:53;;;;;;;11.87;11.37;;;14.50;33.40;;;;;;5060723;28;20489;-71
2023/05/15 02:51:19;;;;;;;11.30;10.80;;;14.50;33.20;;;;;;5044827;28;20545;-73
2023/05/15 02:53:44;;;;;;;11.70;11.20;;;14.50;33.10;;;;;;5058042;28;20939;-74
2023/05/15 02:56:10;;;;;;;12.10;11.60;;;14.50;33.60;;;;;;5059395;28;20413;-73
2023/05/15 02:58:37;;;;;;;12.57;11.97;;;14.50;33.70;;;;;;5061198;28;20160;-73
2023/05/15 03:01:03;;;;;;;12.70;11.93;;;14.30;34.50;;;;;;5060416;28;20172;-73
2023/05/15 03:03:29;;;;;;;12.50;11.83;;;14.10;34.10;;;;;;5063193;28;20448;-72
2023/05/15 03:05:54;;;;;;;13.07;12.47;;;14.10;34.70;;;;;;5059319;28;20472;-74
2023/05/15 03:08:20;;;;;;;12.77;12.17;;;14.10;34.30;;;;;;5058287;28;20184;-73
2023/05/15 03:10:46;;;;;;;12.17;11.57;;;14.10;35.10;;;;;;5059424;28;20175;-72
2023/05/15 03:13:11;;;;;;;13.10;12.50;;;14.10;35.10;;;;;;5060600;28;20206;-73
2023/05/15 03:15:37;;;;;;;13.17;12.57;;;14.20;34.80;;;;;;5059253;28;20175;-72
2023/05/15 03:18:02;;;;;;;12.83;12.27;;;14.30;34.40;;;;;;5059068;28;20714;-73
2023/05/15 03:20:28;;;;;;;11.90;11.40;;;14.30;34.40;;;;;;5042738;28;20548;-73
2023/05/15 03:22:53;;;;;;;12.70;12.20;;;14.40;34.20;;;;;;5043639;28;20496;-74
2023/05/15 03:25:20;;;;;;;11.77;11.27;;;14.40;34.10;;;;;;5059914;28;20263;-73
2023/05/15 03:27:45;;;;;;;12.33;11.83;;;14.50;33.90;;;;;;5062363;28;20520;-74
2023/05/15 03:30:11;;;;;;;13.00;12.50;;;14.50;33.10;;;;;;5060566;28;20837;-73
2023/05/15 03:32:36;;;;;;;12.27;11.57;;;14.50;32.80;;;;;;5064442;28;20210;-70
2023/05/15 03:35:03;;;;;;;11.80;11.20;;;14.60;32.80;;;;;;5058414;28;20560;-73
2023/05/15 03:37:28;;;;;;;12.87;12.33;;;14.60;32.40;;;;;;5058613;28;20579;-71
2023/05/15 03:39:54;;;;;;;12.30;11.70;;;14.60;32.30;;;;;;5060915;28;20417;-73
2023/05/15 03:42:22;;;;;;;13.30;12.70;;;14.60;32.30;;;;;;5041993;28;20556;-73
2023/05/15 03:44:48;;;;;;;12.30;11.80;;;14.60;32.40;;;;;;5041261;28;20210;-70
2023/05/15 03:47:14;;;;;;;12.40;11.90;;;14.60;32.40;;;;;;5058175;28;21270;-74
2023/05/15 03:49:40;;;;;;;13.67;13.07;;;14.60;32.50;;;;;;5064277;28;21038;-74
2023/05/15 03:52:06;;;;;;;12.90;12.30;;;14.60;32.60;;;;;;5060517;28;20176;-74
2023/05/15 03:54:32;;;;;;;12.43;11.93;;;14.70;32.60;;;;;;5059872;28;20782;-73
2023/05/15 03:56:57;;;;;;;12.97;12.37;;;14.70;32.60;;;;;;5059721;28;20182;-72
2023/05/15 03:59:23;;;;;;;11.90;11.47;;;14.70;32.90;;;;;;5059516;28;20183;-73
2023/05/15 04:01:48;;;;;;;13.77;13.07;;;14.70;32.90;;;;;;5059334;28;20199;-70
2023/05/15 04:04:14;;;;;;;12.90;12.30;;;14.60;33.00;;;;;;5060927;28;20703;-73
2023/05/15 04:06:39;;;;;;;13.80;13.20;;;14.40;33.80;;;;;;5060624;28;20734;-73
2023/05/15 04:09:05;;;;;;;13.73;12.90;;;14.40;34.50;;;;;;5062724;28;20171;-73
2023/05/15 04:11:30;;;;;;;13.50;12.90;;;14.40;34.80;;;;;;5062706;28;20171;-73
2023/05/15 04:13:56;;;;;;;12.80;12.20;;;14.40;34.60;;;;;;5063429;28;20195;-73
2023/05/15 04:16:21;;;;;;;14.00;13.40;;;14.50;34.30;;;;;;5062973;28;20264;-73
2023/05/15 04:18:47;;;;;;;12.20;11.70;;;14.60;34.20;;;;;;5064091;28;20531;-73
2023/05/15 04:21:12;;;;;;;12.73;12.23;;;14.60;33.80;;;;;;5044711;28;20270;-73
2023/05/15 04:23:40;;;;;;;13.30;12.70;;;14.70;33.80;;;;;;5065861;28;20237;-72
2023/05/15 04:26:07;;;;;;;14.30;13.70;;;14.70;33.80;;;;;;5067952;28;20561;-71
2023/05/15 04:28:32;;;;;;;13.90;13.30;;;14.60;33.80;;;;;;5067744;28;20421;-74
2023/05/15 04:30:58;;;;;;;14.57;13.87;;;14.70;34.20;;;;;;5073395;28;20547;-72
2023/05/15 04:33:24;;;;;;;14.40;13.77;;;14.70;34.20;;;;;;5070133;28;20219;-74
2023/05/15 04:35:50;;;;;;;14.00;13.30;;;14.70;34.20;;;;;;5071979;28;20175;-74
2023/05/15 04:38:16;;;;;;;13.83;13.23;;;14.70;34.30;;;;;;5071752;28;20413;-73
2023/05/15 04:40:42;;;;;;;13.63;12.93;;;14.70;34.30;;;;;;5054142;28;20530;-73
2023/05/15 04:43:07;;;;;;;13.70;13.00;;;14.70;34.70;;;;;;5071032;28;20209;-73
2023/05/15 04:45:36;;;;;;;13.53;12.93;;;14.80;34.40;;;;;;5070490;28;20182;-72
2023/05/15 04:48:03;;;;;;;13.73;13.13;;;14.70;34.40;;;;;;5072960;28;20226;-73
2023/05/15 04:50:28;;;;;;;13.73;13.03;;;14.60;35.40;;;;;;5073958;28;20440;-73
2023/05/15 04:52:54;;;;;;;13.67;12.97;;;14.60;35.50;;;;;;5072574;28;20409;-74
2023/05/15 04:55:20;;;;;;;15.20;14.30;;;14.70;35.70;;;;;;5073605;28;20175;-73
2023/05/15 04:57:46;;;;;;;15.67;14.87;;;14.70;35.20;;;;;;5075510;28;20192;-73
2023/05/15 05:00:13;;;;;;;14.30;13.70;;;14.70;35.30;;;;;;5074958;28;20183;-72
2023/05/15 05:02:39;;;;;;;13.80;13.20;;;14.80;35.10;;;;;;5055016;28;20429;-72
2023/05/15 05:05:06;;;;;;;14.00;13.30;;;14.70;34.60;;;;;;5072514;28;20432;-75
2023/05/15 05:07:32;;;;;;;15.10;14.40;;;14.70;35.20;;;;;;5074934;28;20500;-74
2023/05/15 05:09:57;;;;;;;14.20;13.60;;;14.70;35.70;;;;;;5077412;28;20823;-73
2023/05/15 05:12:24;;;;;;;13.93;13.33;;;14.80;35.70;;;;;;5079467;28;20182;-72
2023/05/15 05:14:49;;;;;;;15.73;14.93;;;14.80;35.70;;;;;;5063607;28;20195;-73
2023/05/15 05:17:15;;;;;;;15.07;14.37;;;14.90;35.20;;;;;;5077809;28;20432;-72
2023/05/15 05:19:40;;;;;;;14.80;14.17;;;15.00;35.20;;;;;;5054164;28;20194;-72
2023/05/15 05:22:06;;;;;;;15.60;14.80;;;15.00;34.90;;;;;;5072028;28;20182;-73
2023/05/15 05:24:34;;;;;;;15.00;14.30;;;15.10;35.10;;;;;;5075064;28;20199;-74
2023/05/15 05:27:00;;;;;;;15.13;14.50;;;15.10;34.70;;;;;;5073923;28;20541;-74
2023/05/15 05:29:26;;;;;;;16.37;15.20;;;15.10;34.40;;;;;;5075742;28;20417;-73
2023/05/15 05:31:52;;;;;;;15.23;14.50;;;15.10;34.80;;;;;;5073522;28;20180;-73
2023/05/15 05:34:18;;;;;;;15.17;14.57;;;15.10;34.40;;;;;;5073700;28;20191;-74
2023/05/15 05:36:44;;;;;;;14.30;13.70;;;15.00;34.50;;;;;;5075100;28;20417;-72
2023/05/15 05:39:10;;;;;;;16.10;15.30;;;15.00;34.60;;;;;;5073010;28;20420;-73
2023/05/15 05:41:35;;;;;;;16.43;15.60;;;15.10;34.50;;;;;;5073598;28;20171;-73
2023/05/15 05:44:01;;;;;;;16.17;15.37;;;15.10;34.50;;;;;;5073877;28;20199;-73
2023/05/15 05:46:27;;;;;;;14.33;13.70;;;15.00;34.70;;;;;;5073415;28;20199;-73
2023/05/15 05:48:52;;;;;;;16.63;15.73;;;15.00;35.00;;;;;;5074137;28;20206;-73
2023/05/15 05:51:18;;;;;;;15.70;14.80;;;15.10;35.10;;;;;;5072723;28;20214;-73
2023/05/15 05:53:43;;;;;;;17.30;16.40;;;15.10;34.50;;;;;;5074816;28;20560;-73
2023/05/15 05:56:09;;;;;;;18.23;17.30;;;15.20;34.50;;;;;;5073302;28;20175;-72
2023/05/15 05:58:34;;;;;;;16.80;16.00;;;15.10;34.00;;;;;;5055711;28;20277;-73
2023/05/15 06:01:00;;;;;;;15.90;15.10;;;15.10;34.50;;;;;;5075083;28;20184;-72
2023/05/15 06:03:26;;;;;;;15.80;14.83;;;15.10;34.40;;;;;;5059247;28;20295;-73
2023/05/15 06:05:52;;;;;;;17.13;16.13;;;15.20;34.40;;;;;;5076709;28;20207;-73
2023/05/15 06:08:18;;;;;;;16.70;15.83;;;15.20;34.50;;;;;;5075544;28;20420;-73
2023/05/15 06:10:44;;;;;;;17.50;16.50;;;15.30;34.80;;;;;;5067849;28;20441;-72
2023/05/15 06:13:10;;;;;;;17.10;16.13;;;15.30;34.20;;;;;;5053618;28;20434;-72
2023/05/15 06:15:36;;;;;;;16.50;15.60;;;15.30;33.70;;;;;;5054482;28;20164;-71
2023/05/15 06:18:02;;;;;;;16.20;15.40;;;15.30;34.10;;;;;;5054418;28;20483;-72
2023/05/15 06:20:27;;;;;;;17.60;16.70;;;15.30;34.00;;;;;;5053806;28;20468;-73
2023/05/15 06:22:53;;;;;;;16.27;15.47;;;15.30;34.30;;;;;;5036765;28;20226;-73
2023/05/15 06:25:18;;;;;;;16.60;15.67;;;15.30;35.10;;;;;;5068231;28;20190;-73
2023/05/15 06:27:44;;;;;;;16.60;15.80;;;15.30;35.00;;;;;;5070672;28;20195;-71
2023/05/15 06:30:11;;;;;;;15.90;15.10;;;15.30;35.60;;;;;;5074022;28;20546;-73
2023/05/15 06:32:43;;;;;;;15.80;15.10;;;15.30;34.60;;;;;;5069751;28;20257;-71
2023/05/15 06:35:09;;;;;;;16.37;15.57;;;15.30;34.90;;;;;;5072309;28;20435;-72
2023/05/15 06:37:35;;;;;;;17.20;16.30;;;15.30;34.60;;;;;;5052810;28;20414;-72
2023/05/15 06:40:01;;;;;;;17.50;16.50;;;15.40;35.00;;;;;;5070485;28;20420;-72
2023/05/15 06:42:27;;;;;;;18.60;17.70;;;15.40;34.40;;;;;;5070747;28;20519;-73
2023/05/15 06:44:52;;;;;;;17.10;16.30;;;15.50;34.10;;;;;;5078847;28;20440;-71
2023/05/15 06:47:18;;;;;;;17.20;16.30;;;15.50;34.20;;;;;;5090213;28;20202;-72
2023/05/15 06:49:44;;;;;;;16.03;15.07;;;15.50;33.20;;;;;;5092035;28;20171;-72
2023/05/15 06:52:09;;;;;;;17.63;16.73;;;15.40;34.20;;;;;;5091971;28;20175;-72
2023/05/15 06:54:35;;;;;;;16.73;15.93;;;15.50;33.20;;;;;;5073513;28;20228;-72
2023/05/15 06:57:00;;;;;;;16.30;15.50;;;15.60;34.30;;;;;;5065512;28;20179;-73
2023/05/15 06:59:26;;;;;;;15.63;14.93;;;15.60;33.90;;;;;;5071244;28;20601;-72
2023/05/15 07:01:52;;;;;;;15.47;14.67;;;15.60;33.40;;;;;;5071908;28;20238;-72
2023/05/15 07:04:17;;;;;;;14.53;13.63;;;15.60;33.40;;;;;;5073103;28;20288;-72
2023/05/15 07:06:43;;;;;;;16.83;15.83;;;15.70;33.60;;;;;;5073816;28;20211;-74
2023/05/15 07:09:09;;;;;;;14.93;14.23;;;15.70;33.70;;;;;;5073721;28;20179;-74
2023/05/15 07:11:37;;;;;;;15.30;14.60;;;15.80;32.60;;;;;;5072003;28;20171;-74
2023/05/15 07:14:03;;;;;;;15.57;14.70;;;15.80;32.70;;;;;;5071861;28;20210;-74
2023/05/15 07:16:29;;;;;;;14.57;13.87;;;15.80;32.40;;;;;;5072114;28;20517;-73
2023/05/15 07:18:55;;;;;;;13.93;13.33;;;15.90;32.30;;;;;;5072312;28;20508;-72
2023/05/15 07:21:20;;;;;;;14.80;14.10;;;15.90;32.10;;;;;;5072256;28;20662;-73
2023/05/15 07:23:46;;;;;;;14.37;13.47;;;16.00;31.80;;;;;;5072567;28;20570;-73
2023/05/15 07:26:13;;;;;;;13.83;13.13;;;16.00;33.10;;;;;;5073029;28;20252;-75
2023/05/15 07:28:39;;;;;;;13.80;12.90;;;16.10;31.70;;;;;;5054461;28;20179;-74
2023/05/15 07:31:04;;;;;;;13.60;13.00;;;16.10;31.10;;;;;;5072429;28;20797;-72
2023/05/15 07:33:30;;;;;;;13.33;12.63;;;16.20;30.70;;;;;;5073206;28;20216;-74
2023/05/15 07:35:55;;;;;;;12.80;12.20;;;16.20;31.40;;;;;;5071512;28;20205;-73
2023/05/15 07:38:21;;;;;;;12.50;11.90;;;16.20;31.10;;;;;;5073451;28;20207;-72
2023/05/15 07:40:46;;;;;;;13.17;12.57;;;16.20;30.00;;;;;;5073252;28;20210;-72
2023/05/15 07:43:12;;;;;;;12.03;11.50;;;16.20;30.60;;;;;;5072206;28;20264;-73
2023/05/15 07:45:37;;;;;;;13.50;12.60;;;16.20;30.20;;;;;;5071536;28;20187;-73
2023/05/15 07:48:17;;;;;;;11.93;11.43;;;16.20;30.60;;;;;;5072954;28;20680;-72
2023/05/15 07:50:45;;;;;;;11.70;11.20;;;16.30;30.30;;;;;;5055009;28;20193;-73
2023/05/15 07:53:11;;;;;;;12.37;11.77;;;16.40;29.70;;;;;;5072454;28;20885;-74
2023/05/15 07:55:36;;;;;;;12.80;12.20;;;16.30;29.50;;;;;;5073745;28;20501;-72
2023/05/15 07:58:02;;;;;;;13.17;12.47;;;16.40;28.80;;;;;;5074374;28;20461;-73
2023/05/15 08:00:29;;;;;;;13.20;12.60;;;16.40;29.60;;;;;;5076886;28;20175;-74
2023/05/15 08:02:55;;;;;;;13.50;12.90;;;16.50;29.80;;;;;;5076217;28;20608;-73
2023/05/15 08:05:20;;;;;;;12.47;11.77;;;16.50;28.50;;;;;;5060455;28;20421;-73
2023/05/15 08:07:46;;;;;;;13.40;12.90;;;16.50;27.60;;;;;;5087569;28;20213;-74
2023/05/15 08:10:11;;;;;;;14.23;13.53;;;16.60;27.70;;;;;;5088731;28;20236;-73
2023/05/15 08:12:37;;;;;;;12.63;12.13;;;16.60;27.70;;;;;;5072197;28;20180;-72
2023/05/15 08:15:03;;;;;;;13.37;12.67;;;16.60;28.20;;;;;;5088003;28;20209;-74
2023/05/15 08:17:28;;;;;;;13.30;12.63;;;16.60;28.40;;;;;;5085067;28;20711;-74
2023/05/15 08:19:54;;;;;;;13.53;12.83;;;16.60;28.40;;;;;;5086369;28;20207;-74
2023/05/15 08:22:20;;;;;;;13.63;12.83;;;16.60;28.50;;;;;;5086481;28;20630;-73
2023/05/15 08:24:45;;;;;;;12.30;11.80;;;16.70;28.90;;;;;;5084878;28;20594;-74
2023/05/15 08:27:11;;;;;;;11.73;11.20;;;16.70;29.40;;;;;;5068800;28;20277;-75
2023/05/15 08:29:38;;;;;;;11.97;11.50;;;16.80;28.90;;;;;;5083897;28;20175;-75
2023/05/15 08:32:05;;;;;;;12.40;11.63;;;16.90;27.20;;;;;;5081591;28;20183;-75
2023/05/15 08:34:30;;;;;;;10.43;10.03;;;16.90;27.30;;;;;;5074047;28;20432;-74
2023/05/15 08:36:57;;;;;;;10.63;10.23;;;16.90;27.00;;;;;;5076376;28;20413;-75
2023/05/15 08:39:23;;;;;;;12.00;11.50;;;16.90;26.30;;;;;;5076354;28;20182;-74
2023/05/15 08:41:51;;;;;;;11.97;11.47;;;16.90;27.80;;;;;;5074187;28;20418;-75
2023/05/15 08:44:18;;;;;;;12.63;12.03;;;16.90;27.20;;;;;;5076572;28;20669;-75
2023/05/15 08:46:44;;;;;;;12.30;11.70;;;16.90;27.40;;;;;;5075967;28;20465;-74
2023/05/15 08:49:45;;;;;;;11.93;11.40;;;17.00;27.90;;;;;;5075627;28;20413;-73
2023/05/15 08:52:11;;;;;;;11.27;10.77;;;17.00;26.50;;;;;;5057021;28;20424;-74
2023/05/15 08:54:39;;;;;;;13.30;12.50;;;17.00;26.60;;;;;;5076292;28;20433;-75
2023/05/15 08:57:05;;;;;;;11.90;11.10;;;17.10;27.90;;;;;;5075484;28;20233;-74
2023/05/15 08:59:31;;;;;;;10.90;10.40;;;17.10;28.00;;;;;;5075938;28;20723;-75
2023/05/15 09:01:56;;;;;;;10.57;10.17;;;17.30;28.20;;;;;;5057043;28;20199;-75
2023/05/15 09:04:22;;;;;;;11.90;11.10;;;17.30;26.30;;;;;;5057404;28;20206;-75
2023/05/15 09:06:48;;;;;;;11.50;11.00;;;17.40;25.00;;;;;;5075138;28;20282;-72
2023/05/15 09:09:14;;;;;;;11.33;10.83;;;17.50;24.50;;;;;;5056056;28;20175;-74
2023/05/15 09:11:44;;;;;;;11.90;11.40;;;17.50;25.50;;;;;;5073952;28;20418;-73
2023/05/15 09:14:10;;;;;;;11.90;11.40;;;17.60;25.60;;;;;;5074618;28;20448;-73
2023/05/15 09:16:37;;;;;;;12.43;11.83;;;17.60;25.60;;;;;;5057020;28;20515;-73
2023/05/15 09:19:04;;;;;;;12.00;11.30;;;17.60;26.10;;;;;;5075437;28;20464;-74
2023/05/15 09:21:30;;;;;;;10.63;10.13;;;17.70;26.50;;;;;;5075448;28;20413;-73
2023/05/15 09:24:18;;;;;;;12.33;11.53;;;17.80;26.60;;;;;;5071434;28;21024;-74
2023/05/15 09:26:45;;;;;;;12.80;12.00;;;17.90;26.40;;;;;;5055818;28;20519;-74
2023/05/15 09:29:14;;;;;;;12.10;11.50;;;17.90;26.10;;;;;;5055458;28;20446;-76
2023/05/15 09:31:39;;;;;;;11.77;11.17;;;17.90;25.80;;;;;;5037428;28;20415;-76
2023/05/15 09:34:05;;;;;;;12.03;11.23;;;17.80;25.60;;;;;;5057348;28;21069;-75
2023/05/15 09:36:31;;;;;;;12.30;11.77;;;17.90;26.80;;;;;;5075545;28;20186;-74
2023/05/15 09:39:00;;;;;;;11.30;10.80;;;18.00;25.50;;;;;;5074584;28;20711;-75
2023/05/15 09:41:26;;;;;;;11.43;10.90;;;18.20;23.50;;;;;;5074457;28;20854;-75
2023/05/15 09:43:55;;;;;;;10.70;10.20;;;18.50;23.60;;;;;;5073488;28;20520;-73
2023/05/15 09:46:21;;;;;;;10.90;10.40;;;18.50;23.30;;;;;;5056202;28;20503;-73
2023/05/15 09:48:47;;;;;;;11.93;11.33;;;18.70;23.00;;;;;;5075272;28;20453;-74
2023/05/15 09:51:15;;;;;;;10.87;10.33;;;18.90;22.60;;;;;;5074552;28;20453;-73
2023/05/15 09:53:41;;;;;;;10.80;10.20;;;18.90;23.50;;;;;;5074455;28;20442;-74
2023/05/15 09:56:09;;;;;;;10.70;10.20;;;19.10;22.30;;;;;;5074877;28;20414;-75
2023/05/15 09:58:35;;;;;;;10.37;9.77;;;19.20;21.90;;;;;;5074567;28;20179;-75
2023/05/15 10:01:01;;;;;;;10.30;9.80;;;19.30;21.20;;;;;;5074472;28;20780;-74
2023/05/15 10:03:27;;;;;;;9.97;9.47;;;19.40;21.20;;;;;;5074336;28;20426;-72
2023/05/15 10:06:00;;;;;;;11.37;10.77;;;19.50;20.50;;;;;;5074406;28;20429;-73
2023/05/15 10:08:29;;;;;;;10.23;9.80;;;19.50;20.30;;;;;;5073946;28;20168;-76
2023/05/15 10:10:58;;;;;;;11.03;10.30;;;19.50;21.00;;;;;;5074014;28;20414;-76
2023/05/15 10:13:25;;;;;;;10.23;9.73;;;19.50;20.70;;;;;;5073725;28;20807;-75
2023/05/15 10:15:52;;;;;;;10.07;9.67;;;19.70;20.30;;;;;;5056243;28;20413;-74
2023/05/15 10:18:20;;;;;;;10.77;10.17;;;19.80;19.90;;;;;;5074353;28;20425;-73
2023/05/15 10:20:46;;;;;;;9.90;9.50;;;19.80;19.50;;;;;;5057643;28;20505;-73
2023/05/15 10:23:14;;;;;;;11.00;10.50;;;19.80;19.50;;;;;;5073687;28;20962;-73
2023/05/15 10:25:51;;;;;;;10.77;10.30;;;19.90;19.70;;;;;;5073847;28;20402;-74
2023/05/15 10:28:18;;;;;;;13.30;12.10;;;20.00;19.70;;;;;;5056069;28;20448;-73
2023/05/15 10:30:45;;;;;;;11.43;10.83;;;19.90;19.00;;;;;;5073555;28;20496;-74
2023/05/15 10:33:12;;;;;;;9.90;9.50;;;19.90;18.90;;;;;;5073685;28;20445;-73
2023/05/15 10:35:39;;;;;;;11.00;10.40;;;19.90;18.40;;;;;;5073779;28;20778;-73
2023/05/15 10:38:05;;;;;;;9.70;9.10;;;19.80;18.40;;;;;;5073158;28;20463;-73
2023/05/15 10:40:35;;;;;;;10.80;10.30;;;19.80;20.10;;;;;;5073671;28;20477;-75
2023/05/15 10:43:02;;;;;;;9.93;9.53;;;19.90;20.20;;;;;;5073649;28;20553;-75
2023/05/15 10:45:30;;;;;;;10.37;9.97;;;19.90;18.40;;;;;;5073467;28;20421;-74
2023/05/15 10:47:56;;;;;;;10.20;9.80;;;19.80;17.50;;;;;;5074197;28;21073;-74
2023/05/15 10:50:22;;;;;;;10.40;9.90;;;19.60;17.90;;;;;;5074094;28;20480;-74
2023/05/15 10:52:51;;;;;;;10.20;9.80;;;19.60;19.00;;;;;;5073606;28;20452;-75
2023/05/15 10:55:17;;;;;;;10.53;10.03;;;19.60;17.10;;;;;;5073843;28;20168;-75
2023/05/15 10:57:45;;;;;;;10.10;9.70;;;19.60;16.90;;;;;;5073531;28;20454;-75
2023/05/15 11:00:23;;;;;;;10.83;10.40;;;19.70;18.20;;;;;;5073310;28;20417;-74
2023/05/15 11:02:52;;;;;;;9.90;9.50;;;19.80;18.70;;;;;;5072767;28;20433;-73
2023/05/15 11:05:18;;;;;;;9.83;9.43;;;19.80;20.90;;;;;;5073216;28;20417;-74
2023/05/15 11:08:24;;;;;;;10.40;10.00;;;19.70;18.40;;;;;;5071821;28;20833;-73
2023/05/15 11:10:50;;;;;;;18.93;17.43;;;19.70;19.70;;;;;;5055575;28;20409;-73
2023/05/15 11:13:15;;;;;;;9.23;8.83;;;19.60;18.00;;;;;;5073210;28;20479;-73
2023/05/15 11:15:46;;;;;;;10.37;9.87;;;19.70;18.10;;;;;;5072083;28;20396;-72
2023/05/15 11:18:11;;;;;;;10.67;10.17;;;19.60;18.70;;;;;;5072956;28;20184;-72
2023/05/15 11:20:50;;;;;;;10.23;9.73;;;19.70;20.00;;;;;;5068977;28;20430;-71
2023/05/15 11:23:20;;;;;;;9.80;9.40;;;19.70;17.70;;;;;;5072786;28;20193;-72
2023/05/15 11:25:53;;;;;;;9.00;8.70;;;19.60;16.60;;;;;;5072858;28;20535;-73
2023/05/15 11:28:23;;;;;;;10.50;10.00;;;19.60;16.80;;;;;;5073271;28;20488;-72
2023/05/15 11:30:52;;;;;;;9.93;9.43;;;19.60;17.00;;;;;;5072493;28;20500;-73
2023/05/15 11:33:19;;;;;;;10.80;10.30;;;19.60;16.50;;;;;;5076752;28;20504;-72
2023/05/15 11:35:46;;;;;;;11.37;10.87;;;19.50;19.90;;;;;;5079621;28;20550;-72
2023/05/15 11:38:18;;;;;;;10.37;9.73;;;19.50;17.30;;;;;;5078862;28;20452;-74
2023/05/15 11:40:46;;;;;;;9.93;9.53;;;19.50;16.90;;;;;;5077776;28;20421;-74
2023/05/15 11:43:28;;;;;;;11.97;10.83;;;19.50;16.60;;;;;;5076998;28;20451;-72
2023/05/15 11:46:05;;;;;;;10.97;10.40;;;19.40;15.50;;;;;;5076570;28;20511;-71
2023/05/15 11:48:33;;;;;;;11.03;10.03;;;19.50;19.30;;;;;;5076978;28;20914;-73
2023/05/15 11:51:03;;;;;;;10.50;10.00;;;19.50;17.80;;;;;;5078159;28;20425;-73
2023/05/15 11:53:29;;;;;;;10.17;9.67;;;19.60;16.30;;;;;;5079740;28;20442;-74
2023/05/15 11:55:55;;;;;;;10.47;9.97;;;19.70;15.70;;;;;;5080497;28;20440;-74
2023/05/15 11:58:22;;;;;;;11.10;10.50;;;19.70;16.30;;;;;;5062179;28;20420;-73
2023/05/15 12:00:50;;;;;;;10.83;10.43;;;19.70;15.80;;;;;;5079154;28;20202;-74
2023/05/15 12:03:31;;;;;;;10.83;10.30;;;19.70;17.60;;;;;;5079002;28;20975;-74
2023/05/15 12:05:57;;;;;;;10.77;10.17;;;19.70;17.20;;;;;;5078791;28;20420;-74
2023/05/15 12:08:22;;;;;;;10.00;9.60;;;19.60;16.70;;;;;;5079804;28;20421;-72
2023/05/15 12:10:49;;;;;;;10.80;10.03;;;19.70;15.40;;;;;;5079485;28;20413;-74
2023/05/15 12:13:17;;;;;;;9.50;9.10;;;19.70;14.10;;;;;;5079275;28;20198;-74
2023/05/15 12:15:45;;;;;;;9.87;9.47;;;19.70;13.70;;;;;;5079099;28;20516;-73
2023/05/15 12:18:11;;;;;;;9.83;9.43;;;19.70;14.60;;;;;;5079728;28;20405;-74
2023/05/15 12:20:39;;;;;;;10.97;10.37;;;19.70;15.10;;;;;;5079883;28;21058;-74
2023/05/15 12:23:07;;;;;;;11.53;10.87;;;19.80;15.40;;;;;;5078965;28;20429;-73
2023/05/15 12:25:34;;;;;;;10.73;10.23;;;19.70;16.20;;;;;;5078879;28;20989;-73
2023/05/15 12:28:02;;;;;;;10.87;10.37;;;19.60;16.40;;;;;;5079225;28;20947;-73
2023/05/15 12:30:30;;;;;;;10.60;10.20;;;19.60;16.70;;;;;;5078058;28;20406;-72